createdAt,value
2019-05-02T00:01:13.440Z,82.17
2019-05-02T00:03:42.951Z,82.37
2019-05-02T00:06:11.943Z,82.39
2019-05-02T00:08:40.914Z,82.65
2019-05-02T00:11:10.214Z,82.79
2019-05-02T00:13:38.979Z,82.62
2019-05-02T00:16:09.076Z,82.58
2019-05-02T00:18:39.040Z,82.64
2019-05-02T00:21:07.838Z,82.88
2019-05-02T00:23:36.581Z,82.90
2019-05-02T00:26:05.411Z,82.64
2019-05-02T00:28:34.017Z,82.84
2019-05-02T00:31:07.358Z,83.28
2019-05-02T00:33:35.878Z,83.25
2019-05-02T00:36:04.637Z,83.31
2019-05-02T00:38:37.969Z,83.02
2019-05-02T00:41:03.804Z,83.09
2019-05-02T00:43:34.317Z,82.91
2019-05-02T00:46:04.268Z,83.10
2019-05-02T00:48:59.636Z,83.19
2019-05-02T00:51:28.075Z,82.96
2019-05-02T00:53:56.736Z,83.09
2019-05-02T00:56:25.293Z,83.23
2019-05-02T00:58:53.867Z,83.37
2019-05-02T01:01:41.472Z,83.77
2019-05-02T01:04:18.238Z,83.52
2019-05-02T01:06:49.403Z,83.25
2019-05-02T01:09:17.134Z,83.00
2019-05-02T01:11:45.861Z,83.03
2019-05-02T01:14:14.443Z,83.00
2019-05-02T01:16:43.175Z,82.90
2019-05-02T01:19:15.771Z,82.68
2019-05-02T01:21:42.346Z,82.41
2019-05-02T01:24:10.944Z,82.20
2019-05-02T01:26:43.424Z,81.94
2019-05-02T01:29:18.110Z,81.75
2019-05-02T01:31:57.049Z,81.89
2019-05-02T01:34:32.890Z,81.96
2019-05-02T01:37:12.437Z,81.86
2019-05-02T01:39:42.845Z,81.75
2019-05-02T01:42:12.258Z,81.36
2019-05-02T01:44:45.726Z,81.30
2019-05-02T01:47:14.281Z,81.41
2019-05-02T01:49:43.271Z,81.67
2019-05-02T01:52:18.885Z,81.67
2019-05-02T01:54:47.470Z,81.85
2019-05-02T01:57:15.706Z,82.00
2019-05-02T01:59:46.043Z,81.97
2019-05-02T02:02:14.873Z,82.02
2019-05-02T02:04:43.648Z,81.71
2019-05-02T02:07:14.981Z,81.67
2019-05-02T02:09:43.960Z,81.65
2019-05-02T02:12:12.852Z,81.84
2019-05-02T02:14:41.431Z,82.06
2019-05-02T02:17:15.341Z,81.87
2019-05-02T02:19:49.153Z,82.08
2019-05-02T02:22:39.220Z,82.04
2019-05-02T02:25:44.323Z,81.69
2019-05-02T02:28:14.613Z,81.72
2019-05-02T02:30:43.192Z,81.90
2019-05-02T02:33:14.494Z,81.87
2019-05-02T02:35:49.774Z,81.68
2019-05-02T02:38:13.613Z,81.45
2019-05-02T02:40:42.191Z,81.38
2019-05-02T02:43:32.231Z,81.20
2019-05-02T02:45:57.682Z,80.95
2019-05-02T02:48:25.386Z,80.65
2019-05-02T02:50:54.344Z,80.39
2019-05-02T02:53:30.395Z,80.09
2019-05-02T02:56:01.686Z,80.38
2019-05-02T02:58:30.848Z,80.19
2019-05-02T03:00:59.564Z,79.67
2019-05-02T03:03:30.538Z,80.04
2019-05-02T03:06:05.739Z,79.78
2019-05-02T03:08:30.106Z,79.76
2019-05-02T03:10:58.935Z,79.47
2019-05-02T03:13:51.335Z,79.63
2019-05-02T03:16:12.446Z,79.17
2019-05-02T03:18:43.364Z,78.85
2019-05-02T03:21:13.536Z,79.28
2019-05-02T03:23:43.841Z,79.47
2019-05-02T03:26:17.090Z,79.10
2019-05-02T03:28:57.565Z,79.38
2019-05-02T03:31:29.845Z,79.77
2019-05-02T03:33:54.490Z,77.80
2019-05-02T03:36:28.937Z,78.19
2019-05-02T03:38:49.177Z,78.29
2019-05-02T03:41:20.578Z,77.79
2019-05-02T03:43:48.100Z,78.35
2019-05-02T03:46:20.797Z,78.24
2019-05-02T03:48:47.173Z,78.11
2019-05-02T03:51:21.425Z,78.24
2019-05-02T03:53:46.748Z,78.05
2019-05-02T03:56:17.060Z,78.47
2019-05-02T03:58:48.521Z,78.42
2019-05-02T04:01:16.191Z,77.68
2019-05-02T04:03:44.929Z,78.01
2019-05-02T04:06:20.746Z,77.76
2019-05-02T04:08:44.278Z,77.76
2019-05-02T04:11:21.092Z,77.82
2019-05-02T04:13:51.263Z,78.00
2019-05-02T04:16:19.849Z,78.05
2019-05-02T04:18:54.729Z,77.98
2019-05-02T04:21:24.281Z,77.64
2019-05-02T04:23:49.488Z,77.94
2019-05-02T04:26:18.079Z,77.86
2019-05-02T04:28:51.586Z,77.95
2019-05-02T04:31:24.708Z,77.96
2019-05-02T04:33:49.360Z,78.08
2019-05-02T04:36:18.353Z,78.71
2019-05-02T04:38:51.659Z,77.79
2019-05-02T04:41:28.281Z,78.08
2019-05-02T04:43:57.421Z,77.76
2019-05-02T04:46:39.342Z,78.07
2019-05-02T05:12:48.863Z,77.33
2019-05-02T05:15:33.838Z,77.63
2019-05-02T05:17:50.046Z,77.44
2019-05-02T05:20:18.467Z,77.42
2019-05-02T05:22:47.871Z,77.42
2019-05-02T05:25:21.522Z,77.00
2019-05-02T05:27:52.688Z,77.22
2019-05-02T05:30:20.333Z,77.17
2019-05-02T05:32:49.084Z,77.46
2019-05-02T05:35:17.862Z,76.48
2019-05-02T05:37:49.028Z,75.86
2019-05-02T05:40:17.635Z,76.90
2019-05-02T05:42:48.124Z,76.73
2019-05-02T05:45:17.437Z,76.90
2019-05-02T05:47:47.883Z,76.46
2019-05-02T05:50:17.648Z,76.59
2019-05-02T05:52:47.280Z,76.54
2019-05-02T05:55:20.360Z,76.66
2019-05-02T05:57:49.741Z,76.66
2019-05-02T06:00:22.668Z,76.35
2019-05-02T06:02:53.924Z,76.36
2019-05-02T06:05:17.639Z,76.04
2019-05-02T06:07:47.437Z,76.29
2019-05-02T06:10:16.060Z,76.03
2019-05-02T06:12:45.048Z,75.86
2019-05-02T06:15:13.619Z,75.99
2019-05-02T06:17:42.198Z,76.29
2019-05-02T06:20:12.554Z,76.20
2019-05-02T06:22:41.669Z,75.93
2019-05-02T06:25:10.429Z,76.12
2019-05-02T06:27:42.195Z,76.00
2019-05-02T06:30:10.930Z,76.33
2019-05-02T06:32:41.171Z,76.21
2019-05-02T06:35:10.115Z,76.19
2019-05-02T06:37:40.591Z,76.07
2019-05-02T06:40:10.439Z,75.91
2019-05-02T06:42:39.016Z,76.19
2019-05-02T06:45:09.265Z,75.78
2019-05-02T06:47:41.496Z,75.02
2019-05-02T06:50:10.270Z,75.32
2019-05-02T06:52:39.422Z,75.00
2019-05-02T06:55:07.985Z,75.28
2019-05-02T06:57:38.615Z,75.34
2019-05-02T07:00:07.611Z,75.40
2019-05-02T07:02:36.932Z,75.56
2019-05-02T07:05:07.286Z,75.69
2019-05-02T07:07:37.065Z,75.94
2019-05-02T07:10:07.455Z,76.09
2019-05-02T07:12:36.307Z,75.97
2019-05-02T07:15:08.402Z,75.93
2019-05-02T07:17:44.836Z,76.03
2019-05-02T07:20:15.177Z,76.68
2019-05-02T07:22:45.608Z,76.64
2019-05-02T07:25:14.133Z,76.45
2019-05-02T07:27:44.065Z,76.42
2019-05-02T07:30:12.748Z,76.09
2019-05-02T07:32:41.447Z,76.43
2019-05-02T07:35:10.482Z,75.93
2019-05-02T07:37:44.089Z,75.82
2019-05-02T07:40:12.155Z,75.99
2019-05-02T07:42:41.985Z,75.80
2019-05-02T07:45:12.054Z,76.27
2019-05-02T07:47:42.474Z,76.42
2019-05-02T07:50:11.939Z,75.73
2019-05-02T07:52:42.004Z,75.67
2019-05-02T07:55:10.590Z,75.43
2019-05-02T07:57:39.382Z,75.34
2019-05-02T08:00:08.809Z,75.25
2019-05-02T08:02:37.731Z,75.29
2019-05-02T08:05:08.983Z,74.42
2019-05-02T08:07:37.689Z,74.93
2019-05-02T08:10:06.430Z,74.51
2019-05-02T08:12:35.773Z,74.89
2019-05-02T08:15:07.397Z,75.16
2019-05-02T08:17:36.010Z,75.37
2019-05-02T08:20:08.522Z,75.07
2019-05-02T08:22:36.259Z,74.71
2019-05-02T08:25:10.468Z,74.14
2019-05-02T08:28:16.062Z,74.57
2019-05-02T08:30:45.165Z,74.88
2019-05-02T08:33:13.786Z,74.75
2019-05-02T08:35:42.553Z,74.61
2019-05-02T08:38:17.891Z,74.31
2019-05-02T08:40:47.877Z,73.93
2019-05-02T08:43:16.623Z,74.26
2019-05-02T08:45:48.592Z,74.26
2019-05-02T08:48:17.346Z,74.22
2019-05-02T08:50:45.925Z,74.14
2019-05-02T08:53:19.728Z,74.24
2019-05-02T08:55:46.680Z,73.80
2019-05-02T08:58:16.070Z,73.62
2019-05-02T09:00:47.115Z,73.69
2019-05-02T09:03:18.808Z,73.19
2019-05-02T09:05:51.719Z,72.74
2019-05-02T09:08:23.680Z,72.74
2019-05-02T09:10:55.147Z,72.68
2019-05-02T09:13:29.132Z,72.68
2019-05-02T09:16:02.788Z,72.71
2019-05-02T09:18:37.886Z,72.60
2019-05-02T09:21:02.037Z,72.60
2019-05-02T09:23:35.386Z,72.56
2019-05-02T09:26:02.606Z,72.50
2019-05-02T09:28:32.881Z,71.82
2019-05-02T09:31:05.041Z,71.82
2019-05-02T09:33:36.873Z,71.54
2019-05-02T09:36:04.620Z,72.11
2019-05-02T09:38:33.345Z,71.49
2019-05-02T09:41:15.289Z,71.80
2019-05-02T09:43:34.885Z,71.59
2019-05-02T09:46:02.746Z,71.22
2019-05-02T09:48:31.905Z,70.78
2019-05-02T09:51:04.563Z,70.72
2019-05-02T09:53:32.378Z,71.21
2019-05-02T09:56:02.148Z,71.12
2019-05-02T09:58:32.394Z,71.35
2019-05-02T10:01:06.319Z,70.92
2019-05-02T10:03:34.876Z,70.42
2019-05-02T10:06:03.443Z,70.46
2019-05-02T10:08:32.226Z,70.28
2019-05-02T10:11:02.825Z,70.44
2019-05-02T10:13:32.869Z,70.42
2019-05-02T10:16:03.003Z,70.44
2019-05-02T10:18:33.016Z,70.56
2019-05-02T10:21:03.280Z,70.67
2019-05-02T10:23:33.616Z,70.42
2019-05-02T10:26:02.849Z,70.04
2019-05-02T10:28:31.819Z,70.36
2019-05-02T10:31:02.284Z,70.15
2019-05-02T10:33:33.630Z,69.97
2019-05-02T10:36:02.682Z,69.85
2019-05-02T10:38:33.045Z,68.82
2019-05-02T10:41:04.750Z,69.32
2019-05-02T10:43:33.428Z,69.31
2019-05-02T10:46:08.854Z,69.00
2019-05-02T10:48:42.112Z,68.59
2019-05-02T10:51:28.442Z,68.74
2019-05-02T10:53:59.106Z,68.83
2019-05-02T10:56:29.343Z,68.38
2019-05-02T10:58:57.899Z,67.58
2019-05-02T11:01:28.953Z,67.98
2019-05-02T11:03:58.858Z,68.11
2019-05-02T11:06:29.527Z,67.22
2019-05-02T11:08:58.113Z,66.70
2019-05-02T11:11:28.329Z,65.77
2019-05-02T11:14:06.566Z,65.57
2019-05-02T11:17:01.784Z,65.02
2019-05-02T11:19:37.915Z,65.71
2019-05-02T11:22:07.743Z,64.68
2019-05-02T11:24:37.989Z,64.42
2019-05-02T11:27:08.218Z,64.93
2019-05-02T11:29:38.601Z,64.35
2019-05-02T11:32:07.336Z,64.68
2019-05-02T11:34:35.904Z,63.59
2019-05-02T11:37:04.908Z,64.37
2019-05-02T11:39:44.610Z,63.74
2019-05-02T11:42:06.101Z,63.62
2019-05-02T11:44:37.020Z,63.00
2019-05-02T11:47:05.797Z,62.41
2019-05-02T11:49:34.673Z,62.09
2019-05-02T11:52:04.702Z,61.34
2019-05-02T11:54:39.284Z,61.37
2019-05-02T11:57:05.726Z,60.46
2019-05-02T11:59:34.272Z,61.05
2019-05-02T12:02:22.050Z,60.46
2019-05-02T12:04:55.526Z,60.79
2019-05-02T12:07:24.272Z,60.56
2019-05-02T12:09:57.142Z,60.77
2019-05-02T12:12:27.308Z,60.65
2019-05-02T12:14:54.416Z,60.51
2019-05-02T12:17:23.310Z,60.41
2019-05-02T12:19:52.375Z,60.86
2019-05-02T12:22:22.620Z,59.69
2019-05-02T12:24:53.067Z,59.36
2019-05-02T12:27:22.100Z,59.81
2019-05-02T12:29:57.753Z,59.85
2019-05-02T12:32:22.478Z,59.65
2019-05-02T12:34:52.990Z,58.33
2019-05-02T12:37:21.974Z,57.84
2019-05-02T12:39:51.706Z,57.15
2019-05-02T12:42:21.322Z,57.65
2019-05-02T12:44:53.279Z,57.76
2019-05-02T12:47:22.525Z,57.84
2019-05-02T12:49:53.877Z,58.48
2019-05-02T12:52:22.658Z,58.55
2019-05-02T12:54:52.965Z,58.25
2019-05-02T12:57:22.051Z,58.38
2019-05-02T12:59:52.492Z,58.77
2019-05-02T13:02:42.265Z,58.96
2019-05-02T13:05:13.238Z,59.74
2019-05-02T13:07:42.770Z,59.54
2019-05-02T13:10:15.621Z,60.04
2019-05-02T13:12:44.617Z,59.55
2019-05-02T13:15:13.688Z,59.20
2019-05-02T13:17:48.407Z,58.73
2019-05-02T13:20:14.372Z,58.22
2019-05-02T13:23:03.432Z,58.09
2019-05-02T13:25:36.878Z,56.89
2019-05-02T13:28:03.926Z,56.73
2019-05-02T13:30:46.610Z,55.24
2019-05-02T13:33:22.729Z,54.71
2019-05-02T13:35:55.130Z,55.02
2019-05-02T13:38:23.893Z,55.59
2019-05-02T13:40:52.437Z,57.31
2019-05-02T13:43:27.112Z,56.48
2019-05-02T13:46:02.674Z,56.99
2019-05-02T13:48:32.260Z,57.50
2019-05-02T13:51:03.765Z,58.42
2019-05-02T13:53:35.191Z,58.31
2019-05-02T13:56:34.918Z,58.73
2019-05-02T13:59:03.490Z,58.10
2019-05-02T14:01:35.493Z,58.70
2019-05-02T14:04:10.079Z,58.27
2019-05-02T14:06:37.943Z,58.23
2019-05-02T14:09:29.506Z,58.01
2019-05-02T14:12:17.081Z,58.10
2019-05-02T14:14:45.832Z,56.89
2019-05-02T14:17:16.371Z,56.61
2019-05-02T14:19:45.475Z,56.01
2019-05-02T14:22:14.312Z,56.42
2019-05-02T14:24:44.585Z,56.05
2019-05-02T14:27:17.123Z,55.49
2019-05-02T14:29:45.316Z,56.14
2019-05-02T14:32:23.738Z,56.13
2019-05-02T14:35:02.723Z,56.29
2019-05-02T14:37:32.621Z,56.37
2019-05-02T14:40:11.680Z,57.28
2019-05-02T14:42:41.885Z,57.60
2019-05-02T14:45:27.181Z,57.84
2019-05-02T14:47:49.701Z,57.97
2019-05-02T14:50:24.271Z,58.25
2019-05-02T14:52:48.719Z,57.52
2019-05-02T14:55:22.261Z,57.28
2019-05-02T14:57:49.612Z,57.71
2019-05-02T15:00:22.215Z,57.63
2019-05-02T15:02:52.136Z,57.73
2019-05-02T15:05:27.975Z,56.87
2019-05-02T15:07:56.845Z,57.09
2019-05-02T15:10:23.622Z,57.02
2019-05-02T15:12:59.617Z,56.39
2019-05-02T15:15:28.037Z,56.45
2019-05-02T15:17:56.852Z,56.44
2019-05-02T15:20:36.599Z,56.62
2019-05-02T15:22:57.233Z,55.99
2019-05-02T15:25:27.283Z,55.90
2019-05-02T15:27:59.946Z,55.98
2019-05-02T15:30:26.843Z,56.45
2019-05-02T15:33:07.323Z,56.65
2019-05-02T15:35:57.204Z,57.05
2019-05-02T15:38:28.306Z,57.66
2019-05-02T15:40:59.415Z,58.05
2019-05-02T15:43:28.928Z,58.17
2019-05-02T15:45:57.484Z,58.27
2019-05-02T15:48:27.713Z,59.99
2019-05-02T15:51:00.026Z,63.63
2019-05-02T15:53:39.177Z,66.90
2019-05-02T15:56:06.334Z,68.68
2019-05-02T15:58:35.224Z,70.76
2019-05-02T16:01:25.062Z,74.14
2019-05-02T16:03:55.240Z,75.81
2019-05-02T16:06:31.589Z,77.04
2019-05-02T16:08:58.670Z,77.84
2019-05-02T16:11:27.230Z,78.50
2019-05-02T16:13:58.055Z,78.92
2019-05-02T16:16:26.966Z,79.29
2019-05-02T16:18:55.538Z,79.47
2019-05-02T16:21:32.586Z,80.16
2019-05-02T16:24:22.960Z,80.14
2019-05-02T16:26:53.153Z,80.62
2019-05-02T16:29:26.815Z,80.05
2019-05-02T16:31:59.815Z,80.23
2019-05-02T16:34:33.822Z,79.68
2019-05-02T16:37:13.447Z,80.73
2019-05-02T16:39:49.384Z,80.80
2019-05-02T16:42:13.308Z,81.70
2019-05-02T16:44:42.944Z,80.86
2019-05-02T16:47:13.987Z,80.25
2019-05-02T16:49:42.742Z,80.47
2019-05-02T16:52:12.767Z,81.63
2019-05-02T16:54:43.840Z,81.48
2019-05-02T16:57:17.427Z,80.74
2019-05-02T16:59:43.275Z,81.23
2019-05-02T17:02:12.292Z,80.07
2019-05-02T17:04:42.691Z,79.11
2019-05-02T17:07:16.734Z,78.74
2019-05-02T17:10:08.483Z,80.27
2019-05-02T17:12:35.561Z,79.39
2019-05-02T17:15:26.143Z,78.92
2019-05-02T17:17:54.429Z,78.25
2019-05-02T17:20:23.047Z,79.42
2019-05-02T17:22:57.206Z,78.79
2019-05-02T17:25:21.910Z,80.00
2019-05-02T17:27:53.476Z,78.54
2019-05-02T17:30:22.494Z,78.79
2019-05-02T17:32:51.441Z,78.84
2019-05-02T17:35:22.091Z,79.67
2019-05-02T17:37:52.389Z,79.36
2019-05-02T17:40:25.891Z,80.33
2019-05-02T17:42:57.162Z,80.11
2019-05-02T17:45:25.853Z,80.57
2019-05-02T17:47:54.591Z,80.28
2019-05-02T17:50:59.274Z,81.15
2019-05-02T17:53:26.233Z,81.83
2019-05-02T17:55:57.101Z,81.68
2019-05-02T17:58:27.224Z,81.04
2019-05-02T18:01:02.561Z,80.86
2019-05-02T18:03:35.244Z,81.39
2019-05-02T18:06:02.673Z,80.72
2019-05-02T18:08:32.327Z,81.41
2019-05-02T18:11:02.761Z,81.57
2019-05-02T18:13:33.811Z,81.39
2019-05-02T18:16:02.828Z,81.32
2019-05-02T18:18:37.576Z,82.03
2019-05-02T18:21:04.060Z,82.01
2019-05-02T18:23:32.629Z,82.07
2019-05-02T18:26:06.166Z,81.58
2019-05-02T18:28:45.547Z,82.74
2019-05-02T18:31:05.869Z,82.94
2019-05-02T18:33:35.891Z,82.94
2019-05-02T18:36:04.895Z,82.83
2019-05-02T18:38:35.216Z,82.74
2019-05-02T18:41:06.161Z,82.97
2019-05-02T18:43:35.982Z,82.58
2019-05-02T18:46:07.571Z,82.72
2019-05-02T18:48:36.499Z,83.18
2019-05-02T18:51:08.226Z,82.99
2019-05-02T18:53:42.333Z,82.93
2019-05-02T18:56:12.436Z,82.94
2019-05-02T18:58:45.099Z,82.81
2019-05-02T19:01:17.523Z,82.20
2019-05-02T19:03:47.053Z,83.04
2019-05-02T19:06:15.528Z,82.03
2019-05-02T19:08:48.518Z,81.96
2019-05-02T19:11:15.526Z,82.54
2019-05-02T19:13:46.698Z,82.53
2019-05-02T19:16:19.413Z,82.53
2019-05-02T19:18:49.045Z,82.26
2019-05-02T19:21:18.925Z,82.16
2019-05-02T19:23:47.961Z,82.39
2019-05-02T19:26:17.473Z,82.58
2019-05-02T19:29:02.306Z,82.58
2019-05-02T19:31:46.130Z,82.91
2019-05-02T19:34:16.944Z,83.03
2019-05-02T19:36:46.650Z,83.60
2019-05-02T19:39:18.455Z,83.82
2019-05-02T19:41:47.041Z,83.67
2019-05-02T19:44:22.943Z,84.15
2019-05-02T19:46:46.854Z,84.48
2019-05-02T19:49:17.746Z,84.67
2019-05-02T19:51:55.892Z,84.86
2019-05-02T19:54:22.073Z,84.88
2019-05-02T19:56:54.827Z,84.63
2019-05-02T19:59:26.465Z,84.96
2019-05-02T20:01:57.018Z,84.76
2019-05-02T20:04:27.579Z,84.86
2019-05-02T20:07:00.772Z,84.23
2019-05-02T20:09:32.235Z,84.17
2019-05-02T20:12:06.005Z,83.29
2019-05-02T20:14:32.104Z,83.54
2019-05-02T20:17:05.290Z,83.65
2019-05-02T20:19:36.218Z,83.47
2019-05-02T20:22:13.476Z,83.20
2019-05-02T20:25:03.767Z,83.20
2019-05-02T20:27:32.952Z,82.71
2019-05-02T20:30:02.951Z,83.08
2019-05-02T20:32:38.038Z,83.28
2019-05-02T20:35:06.705Z,83.72
2019-05-02T20:37:38.885Z,83.45
2019-05-02T20:40:07.481Z,83.62
2019-05-02T20:42:37.743Z,83.62
2019-05-02T20:45:06.491Z,83.80
2019-05-02T20:47:35.372Z,83.16
2019-05-02T20:50:05.892Z,83.16
2019-05-02T20:52:37.072Z,83.21
2019-05-02T20:55:06.272Z,83.48
2019-05-02T20:57:37.895Z,83.50
2019-05-02T21:00:08.122Z,82.44
2019-05-02T21:02:38.364Z,82.87
2019-05-02T21:05:07.317Z,83.11
2019-05-02T21:07:52.500Z,83.31
2019-05-02T21:10:28.040Z,83.06
2019-05-02T21:12:58.805Z,83.06
2019-05-02T21:15:32.340Z,82.85
2019-05-02T21:18:02.300Z,83.05
2019-05-02T21:20:32.557Z,83.41
2019-05-02T21:23:01.977Z,83.19
2019-05-02T21:25:32.888Z,83.08
2019-05-02T21:28:03.213Z,83.03
2019-05-02T21:30:34.204Z,83.52
2019-05-02T21:33:03.119Z,83.66
2019-05-02T21:35:31.956Z,83.82
2019-05-02T21:38:01.035Z,84.03
2019-05-02T21:40:30.108Z,82.39
2019-05-02T21:42:59.001Z,82.54
2019-05-02T21:45:27.723Z,81.87
2019-05-02T21:47:56.703Z,79.55
2019-05-02T21:50:32.964Z,78.26
2019-05-02T21:53:32.757Z,77.64
2019-05-02T21:56:12.325Z,77.24
2019-05-02T21:59:00.107Z,77.24
2019-05-02T22:01:29.079Z,77.14
2019-05-02T22:03:57.631Z,77.14
2019-05-02T22:06:29.333Z,77.50
2019-05-02T22:08:57.907Z,78.06
2019-05-02T22:11:26.442Z,78.45
2019-05-02T22:13:55.347Z,78.45
2019-05-02T22:16:26.047Z,78.64
2019-05-02T22:18:54.617Z,79.20
2019-05-02T22:21:23.554Z,79.28
2019-05-02T22:23:52.160Z,79.60
2019-05-02T22:26:22.057Z,79.28
2019-05-02T22:28:53.741Z,79.67
2019-05-02T22:31:22.789Z,79.39
2019-05-02T22:33:53.031Z,79.29
2019-05-02T22:36:22.285Z,80.08
2019-05-02T22:38:58.937Z,80.03
2019-05-02T22:41:30.102Z,79.74
2019-05-02T22:44:01.917Z,79.90
2019-05-02T22:46:43.989Z,80.33
2019-05-02T22:49:14.679Z,79.99
2019-05-02T22:51:43.424Z,80.00
2019-05-02T22:54:24.033Z,79.84
2019-05-02T22:56:44.072Z,80.42
2019-05-02T22:59:12.674Z,79.86
2019-05-02T23:01:42.183Z,79.77
2019-05-02T23:04:12.836Z,79.93
2019-05-02T23:06:43.776Z,79.86
2019-05-02T23:09:12.760Z,79.84
2019-05-02T23:11:42.723Z,80.27
2019-05-02T23:14:13.548Z,79.97
2019-05-02T23:16:46.815Z,80.19
2019-05-02T23:19:15.386Z,79.66
2019-05-02T23:21:43.948Z,80.01
2019-05-02T23:24:23.768Z,79.55
2019-05-02T23:27:14.204Z,79.22
2019-05-02T23:29:45.134Z,78.97
2019-05-02T23:32:15.285Z,78.92
2019-05-02T23:34:45.581Z,78.66
2019-05-02T23:37:14.448Z,78.95
2019-05-02T23:39:46.543Z,78.97
2019-05-02T23:42:15.491Z,78.35
2019-05-02T23:44:44.049Z,78.93
2019-05-02T23:47:13.312Z,79.21
2019-05-02T23:49:42.691Z,79.44
2019-05-02T23:52:11.762Z,79.57
2019-05-02T23:54:49.905Z,80.10
2019-05-02T23:57:12.110Z,80.19
2019-05-02T23:59:42.405Z,80.30
